createdAt,value
2022-10-15T16:03:38.366Z,46.22
2022-10-15T16:06:07.999Z,46.38
2022-10-15T16:08:37.111Z,46.57
2022-10-15T16:11:06.093Z,46.67
2022-10-15T16:13:34.794Z,47.05
2022-10-15T16:16:12.922Z,47.19
2022-10-15T16:18:51.488Z,47.26
2022-10-15T16:21:29.010Z,47.41
2022-10-15T16:26:56.652Z,48.24
2022-10-15T16:29:46.280Z,48.00
2022-10-15T16:32:55.096Z,48.23
2022-10-15T16:35:25.979Z,48.67
2022-10-15T16:51:57.997Z,49.17
2022-10-15T16:54:39.099Z,49.64
2022-10-15T16:57:08.540Z,49.83
2022-10-15T17:00:11.388Z,50.57
2022-10-15T17:03:07.945Z,50.75
2022-10-15T17:06:08.358Z,52.87
2022-10-15T17:08:51.619Z,52.66
2022-10-15T17:11:35.152Z,53.39
2022-10-15T17:15:07.316Z,54.25
2022-10-15T17:17:36.049Z,53.83
2022-10-15T17:20:12.508Z,54.44
2022-10-15T17:22:41.246Z,55.01
2022-10-15T17:25:15.555Z,54.04
2022-10-15T17:27:43.199Z,54.02
2022-10-15T17:30:11.375Z,54.16
2022-10-15T17:46:32.747Z,57.32
2022-10-15T17:49:31.238Z,59.13
2022-10-15T17:52:00.299Z,59.38
2022-10-15T17:54:39.070Z,59.12
2022-10-15T17:57:07.976Z,58.55
2022-10-15T17:59:39.921Z,57.76
2022-10-15T18:02:34.502Z,58.38
2022-10-15T18:05:03.459Z,59.35
2022-10-15T18:24:13.472Z,62.86
2022-10-15T18:26:40.917Z,62.42
2022-10-15T18:45:51.601Z,62.63
2022-10-15T18:48:19.884Z,63.98
2022-10-15T18:50:47.299Z,64.49
2022-10-15T18:53:14.619Z,64.24
2022-10-15T18:55:42.361Z,63.01
2022-10-15T18:58:10.076Z,62.92
2022-10-15T19:03:34.961Z,65.79
2022-10-15T19:06:03.891Z,65.62
2022-10-15T19:08:32.729Z,66.12
2022-10-15T19:11:09.006Z,65.50
2022-10-15T19:13:37.792Z,64.98
2022-10-15T19:16:07.649Z,66.66
2022-10-15T19:18:37.562Z,65.39
2022-10-15T19:21:07.070Z,66.91
2022-10-15T19:23:36.145Z,67.03
2022-10-15T19:26:13.700Z,67.51
2022-10-15T19:28:43.324Z,65.56
2022-10-15T19:31:22.764Z,65.52
2022-10-15T19:33:51.701Z,65.63
2022-10-15T19:53:23.748Z,66.65
2022-10-15T19:55:58.374Z,66.02
2022-10-15T19:58:25.982Z,66.42
2022-10-15T20:00:54.339Z,67.75
2022-10-15T20:03:24.932Z,68.57
2022-10-15T20:05:52.793Z,68.44
2022-10-15T20:08:20.733Z,69.09
2022-10-15T20:10:53.229Z,69.39
2022-10-15T20:13:22.154Z,69.62
2022-10-15T20:15:53.033Z,67.74
2022-10-15T20:18:21.771Z,68.44
2022-10-15T20:20:49.721Z,70.25
2022-10-15T20:23:17.769Z,69.91
2022-10-15T20:25:46.080Z,70.16
2022-10-15T20:28:15.647Z,70.52
2022-10-15T20:30:43.878Z,69.38
2022-10-15T20:33:13.583Z,70.15
2022-10-15T20:35:41.904Z,68.67
2022-10-15T20:38:09.612Z,67.38
2022-10-15T20:40:41.023Z,67.16
2022-10-15T20:43:09.207Z,68.75
2022-10-15T20:45:44.479Z,69.42
2022-10-15T20:48:19.570Z,70.26
2022-10-15T20:50:49.220Z,70.10
2022-10-15T20:53:44.026Z,68.98
2022-10-15T20:56:12.303Z,69.66
2022-10-15T20:58:39.697Z,68.64
2022-10-15T21:01:07.525Z,70.69
2022-10-15T21:03:34.807Z,71.06
2022-10-15T21:06:02.590Z,70.18
2022-10-15T21:08:30.098Z,70.99
2022-10-15T21:11:09.022Z,69.92
2022-10-15T21:13:36.378Z,70.81
2022-10-15T21:16:06.142Z,69.67
2022-10-15T21:31:56.743Z,71.11
2022-10-15T21:34:28.006Z,71.31
2022-10-15T21:36:56.878Z,70.99
2022-10-15T21:39:25.570Z,70.79
2022-10-15T21:41:54.309Z,71.13
2022-10-15T21:44:23.037Z,71.33
2022-10-15T21:47:16.303Z,70.93
2022-10-15T21:49:46.035Z,72.07
2022-10-15T21:52:15.056Z,72.27
2022-10-15T21:54:43.799Z,72.92
2022-10-15T21:57:12.466Z,73.05
2022-10-15T21:59:41.217Z,72.96
2022-10-15T22:02:10.271Z,72.84
2022-10-15T22:04:39.671Z,73.65
2022-10-15T22:07:09.352Z,73.42
2022-10-15T22:09:38.104Z,73.55
2022-10-15T22:12:06.890Z,73.78
2022-10-15T22:14:36.650Z,74.02
2022-10-15T22:17:05.311Z,74.21
2022-10-15T22:19:33.938Z,74.62
2022-10-15T22:25:12.390Z,74.94
2022-10-15T22:30:55.612Z,74.45
2022-10-15T22:33:24.295Z,74.61
2022-10-15T22:35:53.013Z,74.35
2022-10-15T22:38:21.702Z,73.74
2022-10-15T22:40:55.479Z,73.75
